»·PEaware :: AAL297 KLAX-PHNL

AAL297 :: KLAX-PHNL

FLIGHT INFORMATION

Flight Status: Arrived
Operator:
American Airlines
More flights by this operator :: More flights under this callsign
Pilot: Mike Han (866)
Aircraft: BOEING 757-200
(B752)
More flights by this aircraft type
Origin: KLAX Los Angeles Intl
United States
Destination: PHNL Honolulu Intl
United States
More flights between these airports :: More routes between these airports
Route: PRCH9 DINTY R576 DENNS MAGGI3
File this flight plan on PilotEdge
Remarks: / V /
Altitude:
(Current/Filed)
34,000ft
Speed:
(Current/Filed)
475kts
Departed: 09-Aug-13 05:53 PM
Arrived: 09-Aug-13 11:20 PM
Distance/Time
Traveled:
2216nm/5:27
Distance/Time
To Go:
Arrived

Flight Plot

Page will automatically refresh every two minutes.


Map Options




Map Legend


Flown Route
Filed Route
Departure Airport
Arrival Airport
Navaid (VOR, NDB)
Fix

Horizontal Profiles

Position Reports

Time Latitude Longitude Heading Altitude Ground
Speed
09-Aug-13 17:32 33.940714 -118.407505 73 135ft 0kts
09-Aug-13 17:33 33.940714 -118.407504 73 135ft 0kts
09-Aug-13 17:34 33.940714 -118.407504 73 135ft 0kts
09-Aug-13 17:35 33.940714 -118.407504 73 135ft 0kts
09-Aug-13 17:36 33.940714 -118.407504 73 135ft 0kts
09-Aug-13 17:37 33.940714 -118.407504 73 135ft 0kts
09-Aug-13 17:38 33.940714 -118.407504 73 135ft 0kts
09-Aug-13 17:39 33.940714 -118.407504 73 135ft 0kts
09-Aug-13 17:40 33.940714 -118.407504 73 135ft 0kts
09-Aug-13 17:41 33.940714 -118.407504 73 135ft 0kts
09-Aug-13 17:42 33.940714 -118.407504 73 135ft 0kts
09-Aug-13 17:43 33.940714 -118.407504 73 135ft 0kts
09-Aug-13 17:44 33.940710 -118.407523 73 135ft 1kts
09-Aug-13 17:45 33.940802 -118.408042 138 135ft 2kts
09-Aug-13 17:45 33.940999 -118.408161 163 135ft 0kts
09-Aug-13 17:46 33.940999 -118.408161 163 135ft 0kts
09-Aug-13 17:47 33.940998 -118.408161 163 135ft 0kts
09-Aug-13 17:48 33.939765 -118.408019 177 135ft 9kts
09-Aug-13 17:49 33.938300 -118.404566 82 135ft 17kts
09-Aug-13 17:50 33.938935 -118.398437 82 135ft 19kts
09-Aug-13 17:51 33.939652 -118.391427 82 135ft 22kts
09-Aug-13 17:52 33.940479 -118.383606 83 135ft 24kts
09-Aug-13 17:53 33.940689 -118.381263 84 135ft 0kts
09-Aug-13 17:54 33.940103 -118.380143 185 135ft 2kts
09-Aug-13 17:55 33.938342 -118.394549 262 135ft 135kts
09-Aug-13 17:56 33.930934 -118.449459 260 2463ft 185kts
09-Aug-13 17:57 33.923618 -118.521049 263 4822ft 245kts
09-Aug-13 17:58 33.915133 -118.609219 262 7781ft 277kts
09-Aug-13 17:59 33.905404 -118.704239 264 10536ft 301kts
09-Aug-13 18:00 33.894173 -118.814719 263 12314ft 358kts
09-Aug-13 18:01 33.882749 -118.935430 263 15246ft 370kts
09-Aug-13 18:02 33.871416 -119.058712 263 18024ft 376kts
09-Aug-13 18:03 33.860059 -119.186451 262 20308ft 391kts
09-Aug-13 18:04 33.847152 -119.318129 262 22510ft 399kts
09-Aug-13 18:05 33.833832 -119.453296 262 24458ft 414kts
09-Aug-13 18:06 33.819722 -119.592365 262 26379ft 424kts
09-Aug-13 18:07 33.805573 -119.733486 262 28340ft 429kts
09-Aug-13 18:08 33.790730 -119.878130 262 29863ft 442kts
09-Aug-13 18:09 33.775496 -120.025712 262 31571ft 445kts
09-Aug-13 18:10 33.757301 -120.198005 262 33562ft 445kts
09-Aug-13 18:11 33.744254 -120.320910 262 33963ft 443kts
09-Aug-13 18:12 33.726000 -120.490652 262 33962ft 436kts
09-Aug-13 18:13 33.712952 -120.611001 262 33986ft 436kts
09-Aug-13 18:14 33.697157 -120.755284 262 33992ft 436kts
09-Aug-13 18:15 33.681110 -120.899155 262 33992ft 435kts
09-Aug-13 18:16 33.665064 -121.042830 262 33992ft 435kts
09-Aug-13 18:17 33.648709 -121.187031 262 33992ft 435kts
09-Aug-13 18:18 33.632187 -121.330656 262 33993ft 435kts
09-Aug-13 18:19 33.615655 -121.473884 262 33992ft 433kts
09-Aug-13 18:20 33.598921 -121.616635 262 33992ft 432kts
09-Aug-13 18:21 33.582072 -121.759691 262 33992ft 432kts
09-Aug-13 18:22 33.565011 -121.902252 262 34066ft 433kts
09-Aug-13 18:23 33.547828 -122.045133 262 34068ft 433kts
09-Aug-13 18:24 33.530422 -122.187855 262 34068ft 433kts
09-Aug-13 18:25 33.513000 -122.330440 262 34068ft 433kts
09-Aug-13 18:26 33.495390 -122.473544 262 34068ft 433kts
09-Aug-13 18:27 33.476059 -122.615738 258 34069ft 433kts
09-Aug-13 18:28 33.446682 -122.755896 255 34059ft 436kts
09-Aug-13 18:29 33.417202 -122.897464 256 34058ft 438kts
09-Aug-13 18:30 33.387552 -123.039005 256 34058ft 439kts
09-Aug-13 18:31 33.357814 -123.180525 256 34058ft 439kts
09-Aug-13 18:32 33.327857 -123.321888 256 34058ft 439kts
09-Aug-13 18:33 33.297900 -123.463256 256 34058ft 439kts
09-Aug-13 18:34 33.267771 -123.604991 256 34059ft 439kts
09-Aug-13 18:35 33.237742 -123.746233 256 34058ft 439kts
09-Aug-13 18:36 33.207319 -123.887307 255 34058ft 439kts
09-Aug-13 18:37 33.176696 -124.028285 255 34058ft 439kts
09-Aug-13 18:38 33.145671 -124.169624 255 34059ft 439kts
09-Aug-13 18:39 33.114741 -124.310107 255 34058ft 438kts
09-Aug-13 18:40 33.083707 -124.450234 255 34058ft 437kts
09-Aug-13 18:41 33.052333 -124.590159 255 34014ft 438kts
09-Aug-13 18:42 33.020859 -124.730567 255 33978ft 439kts
09-Aug-13 18:43 32.988923 -124.871624 255 33969ft 440kts
09-Aug-13 18:44 32.957045 -125.012205 255 33968ft 440kts
09-Aug-13 18:45 32.924892 -125.152739 255 33968ft 440kts
09-Aug-13 18:46 32.892640 -125.293091 255 33969ft 440kts
09-Aug-13 18:47 32.860129 -125.433884 255 33968ft 440kts
09-Aug-13 18:48 32.827527 -125.574079 255 33969ft 440kts
09-Aug-13 18:49 32.794807 -125.714082 255 33968ft 439kts
09-Aug-13 18:50 32.762058 -125.853589 255 33977ft 438kts
09-Aug-13 18:51 32.729080 -125.993169 255 33978ft 437kts
09-Aug-13 18:52 32.696107 -126.132031 255 33978ft 437kts
09-Aug-13 18:53 32.662990 -126.270839 255 33977ft 437kts
09-Aug-13 18:54 32.629833 -126.409521 255 33978ft 437kts
09-Aug-13 18:55 32.602095 -126.525519 255 33978ft 437kts
09-Aug-13 18:56 32.563296 -126.687224 254 33978ft 437kts
09-Aug-13 18:57 32.535182 -126.802513 254 33978ft 437kts
09-Aug-13 18:58 32.495661 -126.963810 255 33968ft 437kts
09-Aug-13 18:59 32.461615 -127.101714 254 33968ft 436kts
09-Aug-13 19:00 32.433128 -127.217006 254 33968ft 436kts
09-Aug-13 19:01 32.398825 -127.354635 254 33968ft 436kts
09-Aug-13 19:02 32.364467 -127.492279 254 33978ft 437kts
09-Aug-13 19:03 32.329850 -127.629853 254 33979ft 438kts
09-Aug-13 19:04 32.294909 -127.768264 254 33978ft 439kts
09-Aug-13 19:05 32.259708 -127.906795 254 33979ft 442kts
09-Aug-13 19:06 32.224674 -128.044245 254 33979ft 444kts
09-Aug-13 19:07 32.188722 -128.184190 254 33978ft 441kts
09-Aug-13 19:08 32.153901 -128.319807 254 33979ft 441kts
09-Aug-13 19:09 32.118152 -128.457970 254 33989ft 441kts
09-Aug-13 19:10 32.082696 -128.594843 254 33998ft 441kts
09-Aug-13 19:11 32.045689 -128.737605 254 33998ft 441kts
09-Aug-13 19:12 32.009776 -128.874698 254 33998ft 441kts
09-Aug-13 19:13 31.973460 -129.012409 254 33997ft 440kts
09-Aug-13 19:14 31.936334 -129.152089 253 33998ft 440kts
09-Aug-13 19:15 31.900134 -129.288020 253 33999ft 440kts
09-Aug-13 19:16 31.862967 -129.426444 253 33998ft 439kts
09-Aug-13 19:17 31.826077 -129.563486 253 33998ft 438kts
09-Aug-13 19:18 31.789200 -129.699840 253 33998ft 438kts
09-Aug-13 19:19 31.752129 -129.836009 253 33999ft 438kts
09-Aug-13 19:20 31.714975 -129.972143 253 33998ft 438kts
09-Aug-13 19:21 31.677754 -130.107757 253 33998ft 438kts
09-Aug-13 19:22 31.640035 -130.244513 253 33998ft 438kts
09-Aug-13 19:23 31.602430 -130.380348 253 33998ft 438kts
09-Aug-13 19:24 31.564588 -130.516029 253 33998ft 438kts
09-Aug-13 19:25 31.526631 -130.652088 253 33998ft 438kts
09-Aug-13 19:26 31.488725 -130.787607 253 33998ft 438kts
09-Aug-13 19:27 31.450786 -130.923107 253 33998ft 438kts
09-Aug-13 19:28 31.412921 -131.058065 253 33998ft 438kts
09-Aug-13 19:29 31.374249 -131.193668 252 33979ft 438kts
09-Aug-13 19:30 31.335494 -131.329183 253 33979ft 438kts
09-Aug-13 19:31 31.296856 -131.463654 252 33978ft 438kts
09-Aug-13 19:32 31.257985 -131.598511 252 33979ft 438kts
09-Aug-13 19:33 31.218743 -131.733665 252 33978ft 438kts
09-Aug-13 19:34 31.180232 -131.866127 252 33984ft 438kts
09-Aug-13 19:35 31.140887 -132.000645 252 33989ft 438kts
09-Aug-13 19:36 31.100985 -132.136312 252 33988ft 438kts
09-Aug-13 19:37 31.061444 -132.270474 252 33978ft 438kts
09-Aug-13 19:38 31.021820 -132.403942 252 33978ft 437kts
09-Aug-13 19:39 30.981651 -132.539068 252 33978ft 437kts
09-Aug-13 19:40 30.942039 -132.673558 252 33978ft 436kts
09-Aug-13 19:41 30.902185 -132.806824 251 33978ft 436kts
09-Aug-13 19:42 30.862133 -132.939902 251 33978ft 436kts
09-Aug-13 19:43 30.821857 -133.072814 251 33978ft 436kts
09-Aug-13 19:44 30.781374 -133.206105 251 33988ft 436kts
09-Aug-13 19:45 30.740780 -133.338784 251 33988ft 436kts
09-Aug-13 19:46 30.700019 -133.471900 251 33997ft 436kts
09-Aug-13 19:47 30.659287 -133.603961 251 34280ft 435kts
09-Aug-13 19:48 30.618313 -133.736685 251 34853ft 443kts
09-Aug-13 19:49 30.576499 -133.871325 251 35946ft 444kts
09-Aug-13 19:50 30.534865 -134.004838 251 35988ft 437kts
09-Aug-13 19:51 30.493536 -134.136829 251 35988ft 433kts
09-Aug-13 19:52 30.452357 -134.267678 251 35988ft 432kts
09-Aug-13 19:53 30.411167 -134.398340 251 35988ft 432kts
09-Aug-13 19:54 30.369909 -134.528919 251 35988ft 432kts
09-Aug-13 19:55 30.328481 -134.659854 251 35988ft 432kts
09-Aug-13 19:56 30.287181 -134.790237 251 35988ft 432kts
09-Aug-13 19:57 30.245479 -134.920540 250 35988ft 432kts
09-Aug-13 19:58 30.203665 -135.050668 250 35988ft 432kts
09-Aug-13 19:59 30.161622 -135.180626 250 35988ft 432kts
09-Aug-13 20:00 30.119379 -135.310995 250 35988ft 432kts
09-Aug-13 20:01 30.077067 -135.440716 250 35998ft 432kts
09-Aug-13 20:02 30.027633 -135.591864 250 35998ft 431kts
09-Aug-13 20:03 29.992165 -135.700084 250 35998ft 431kts
09-Aug-13 20:04 29.949548 -135.829236 250 35998ft 431kts
09-Aug-13 20:05 29.906898 -135.958275 249 35998ft 431kts
09-Aug-13 20:06 29.864050 -136.087452 250 35888ft 433kts
09-Aug-13 20:07 29.820752 -136.217217 249 35710ft 433kts
09-Aug-13 20:08 29.777545 -136.346525 250 35533ft 433kts
09-Aug-13 20:09 29.734173 -136.475689 249 35356ft 433kts
09-Aug-13 20:10 29.690681 -136.604708 249 35279ft 433kts
09-Aug-13 20:11 29.646899 -136.734211 249 35278ft 434kts
09-Aug-13 20:12 29.603036 -136.863289 249 35279ft 434kts
09-Aug-13 20:13 29.559050 -136.992161 249 35278ft 433kts
09-Aug-13 20:14 29.515424 -137.120693 249 35278ft 433kts
09-Aug-13 20:15 29.471769 -137.249450 249 35278ft 434kts
09-Aug-13 20:16 29.427366 -137.378463 249 35278ft 434kts
09-Aug-13 20:17 29.382879 -137.506983 249 35278ft 434kts
09-Aug-13 20:18 29.338329 -137.635377 249 35278ft 434kts
09-Aug-13 20:19 29.293601 -137.763689 249 35278ft 434kts
09-Aug-13 20:20 29.248653 -137.892402 249 35249ft 434kts
09-Aug-13 20:21 29.203722 -138.020258 249 35248ft 435kts
09-Aug-13 20:22 29.158420 -138.148942 248 35248ft 435kts
09-Aug-13 20:23 29.113158 -138.277100 248 35248ft 435kts
09-Aug-13 20:24 29.067704 -138.405144 249 35248ft 435kts
09-Aug-13 20:25 29.022193 -138.533117 248 35238ft 435kts
09-Aug-13 20:26 28.976621 -138.660549 248 35238ft 435kts
09-Aug-13 20:27 28.930593 -138.789110 248 35238ft 435kts
09-Aug-13 20:28 28.884503 -138.917184 248 35238ft 435kts
09-Aug-13 20:29 28.838438 -139.044672 248 35238ft 435kts
09-Aug-13 20:30 28.792317 -139.172087 248 35238ft 435kts
09-Aug-13 20:31 28.746043 -139.299317 248 35238ft 435kts
09-Aug-13 20:32 28.699675 -139.426533 248 35238ft 435kts
09-Aug-13 20:33 28.652975 -139.553967 248 35238ft 435kts
09-Aug-13 20:34 28.606362 -139.680930 248 35238ft 435kts
09-Aug-13 20:35 28.559692 -139.807872 248 35238ft 435kts
09-Aug-13 20:36 28.512993 -139.934685 248 35245ft 435kts
09-Aug-13 20:37 28.465741 -140.061637 247 35255ft 435kts
09-Aug-13 20:38 28.418650 -140.187558 247 35253ft 433kts
09-Aug-13 20:39 28.371645 -140.313059 247 35254ft 432kts
09-Aug-13 20:40 28.324552 -140.438323 247 35254ft 432kts
09-Aug-13 20:41 28.277155 -140.563963 247 35254ft 432kts
09-Aug-13 20:42 28.229817 -140.689052 247 35254ft 432kts
09-Aug-13 20:43 28.182383 -140.813970 247 35254ft 432kts
09-Aug-13 20:44 28.134815 -140.938845 247 35254ft 432kts
09-Aug-13 20:45 28.087012 -141.063988 247 35254ft 432kts
09-Aug-13 20:46 28.039244 -141.188651 247 35254ft 432kts
09-Aug-13 20:47 27.991312 -141.313128 247 35254ft 432kts
09-Aug-13 20:48 27.943199 -141.437756 247 35254ft 434kts
09-Aug-13 20:49 27.894761 -141.562962 247 35254ft 432kts
09-Aug-13 20:50 27.846812 -141.686519 247 35254ft 428kts
09-Aug-13 20:51 27.798895 -141.809322 247 35254ft 427kts
09-Aug-13 20:52 27.751047 -141.931920 247 35255ft 427kts
09-Aug-13 20:53 27.702804 -142.054827 247 35253ft 427kts
09-Aug-13 20:54 27.654716 -142.177222 247 35254ft 427kts
09-Aug-13 20:55 27.606480 -142.299466 247 35254ft 427kts
09-Aug-13 20:56 27.558107 -142.421645 247 35258ft 427kts
09-Aug-13 20:57 27.509624 -142.543703 247 35258ft 427kts
09-Aug-13 20:58 27.460985 -142.665979 247 35288ft 427kts
09-Aug-13 20:59 27.412248 -142.787877 247 35289ft 427kts
09-Aug-13 21:00 27.363513 -142.909534 246 35288ft 427kts
09-Aug-13 21:01 27.314688 -143.031126 246 35288ft 427kts
09-Aug-13 21:02 27.265531 -143.152970 246 35289ft 427kts
09-Aug-13 21:03 27.216588 -143.274347 246 35288ft 427kts
09-Aug-13 21:04 27.167502 -143.395672 246 35288ft 427kts
09-Aug-13 21:05 27.118381 -143.516824 246 35289ft 427kts
09-Aug-13 21:06 27.069266 -143.638163 246 35288ft 429kts
09-Aug-13 21:07 27.019383 -143.760352 246 35289ft 431kts
09-Aug-13 21:08 26.969421 -143.882296 246 35289ft 431kts
09-Aug-13 21:09 26.919175 -144.004184 246 35288ft 431kts
09-Aug-13 21:10 26.868776 -144.126346 246 35288ft 431kts
09-Aug-13 21:11 26.818424 -144.248054 246 35288ft 431kts
09-Aug-13 21:12 26.767877 -144.369612 246 35289ft 431kts
09-Aug-13 21:13 26.717313 -144.491024 246 35288ft 431kts
09-Aug-13 21:14 26.666631 -144.612377 246 35289ft 431kts
09-Aug-13 21:15 26.615653 -144.734076 246 35288ft 431kts
09-Aug-13 21:16 26.564764 -144.855217 245 35288ft 431kts
09-Aug-13 21:17 26.513791 -144.976246 246 35288ft 431kts
09-Aug-13 21:18 26.462608 -145.097204 245 35288ft 431kts
09-Aug-13 21:19 26.411264 -145.218464 245 35288ft 431kts
09-Aug-13 21:20 26.359928 -145.339184 246 35288ft 431kts
09-Aug-13 21:21 26.308542 -145.459775 245 35289ft 431kts
09-Aug-13 21:22 26.257010 -145.580326 245 35288ft 431kts
09-Aug-13 21:23 26.205317 -145.700924 245 35422ft 437kts
09-Aug-13 21:24 26.152412 -145.824269 245 36909ft 440kts
09-Aug-13 21:25 26.100012 -145.947049 245 37294ft 436kts
09-Aug-13 21:26 26.048153 -146.067207 245 37327ft 427kts
09-Aug-13 21:27 25.997008 -146.184724 245 37497ft 420kts
09-Aug-13 21:28 25.946194 -146.301558 245 37672ft 418kts
09-Aug-13 21:29 25.895625 -146.417662 245 37849ft 418kts
09-Aug-13 21:30 25.845059 -146.533591 245 37984ft 418kts
09-Aug-13 21:31 25.794445 -146.649466 245 37988ft 417kts
09-Aug-13 21:32 25.743726 -146.765408 245 37988ft 417kts
09-Aug-13 21:33 25.693114 -146.880940 245 37988ft 417kts
09-Aug-13 21:34 25.642333 -146.996270 245 37988ft 417kts
09-Aug-13 21:35 25.591444 -147.111455 245 37988ft 417kts
09-Aug-13 21:36 25.540247 -147.226950 245 37988ft 417kts
09-Aug-13 21:37 25.489145 -147.341990 245 37988ft 417kts
09-Aug-13 21:38 25.437927 -147.456909 244 37988ft 417kts
09-Aug-13 21:39 25.386628 -147.571700 245 37988ft 417kts
09-Aug-13 21:40 25.335081 -147.686803 244 37988ft 417kts
09-Aug-13 21:41 25.283603 -147.801404 244 37988ft 417kts
09-Aug-13 21:42 25.232032 -147.915975 244 37988ft 417kts
09-Aug-13 21:43 25.180401 -148.030391 244 37988ft 417kts
09-Aug-13 21:44 25.128645 -148.144718 244 37988ft 417kts
09-Aug-13 21:45 25.076630 -148.259386 244 37988ft 417kts
09-Aug-13 21:46 25.024735 -148.373516 244 37988ft 417kts
09-Aug-13 21:47 24.972703 -148.487615 244 37986ft 418kts
09-Aug-13 21:48 24.919986 -148.603118 244 37989ft 425kts
09-Aug-13 21:49 24.866373 -148.720057 243 37988ft 428kts
09-Aug-13 21:50 24.812662 -148.836882 243 37988ft 428kts
09-Aug-13 21:51 24.758816 -148.953716 243 37988ft 428kts
09-Aug-13 21:52 24.704956 -149.070444 243 37989ft 427kts
09-Aug-13 21:53 24.651172 -149.186761 243 37988ft 424kts
09-Aug-13 21:54 24.597793 -149.302036 243 37988ft 423kts
09-Aug-13 21:55 24.544393 -149.417197 243 37988ft 423kts
09-Aug-13 21:56 24.490973 -149.532244 243 37988ft 423kts
09-Aug-13 21:57 24.437527 -149.647191 243 37988ft 423kts
09-Aug-13 21:58 24.383539 -149.762342 243 37988ft 423kts
09-Aug-13 21:59 24.329693 -149.876952 243 37988ft 423kts
09-Aug-13 22:00 24.275696 -149.991470 243 37988ft 423kts
09-Aug-13 22:01 24.221643 -150.105966 243 37988ft 423kts
09-Aug-13 22:02 24.167355 -150.220690 243 37988ft 423kts
09-Aug-13 22:03 24.113248 -150.334592 243 37988ft 423kts
09-Aug-13 22:04 24.067869 -150.430089 243 37988ft 423kts
09-Aug-13 22:05 24.004500 -150.562959 243 37988ft 422kts
09-Aug-13 22:06 23.959359 -150.657459 243 37988ft 421kts
09-Aug-13 22:07 23.895931 -150.789936 243 37988ft 420kts
09-Aug-13 22:08 23.850783 -150.883955 243 37988ft 420kts
09-Aug-13 22:09 23.796512 -150.996633 243 37988ft 419kts
09-Aug-13 22:10 23.733167 -151.128052 243 37988ft 419kts
09-Aug-13 22:11 23.678557 -151.240873 243 37988ft 419kts
09-Aug-13 22:12 23.633185 -151.334610 243 37988ft 419kts
09-Aug-13 22:13 23.569524 -151.465608 243 37988ft 419kts
09-Aug-13 22:14 23.523993 -151.559180 242 37988ft 419kts
09-Aug-13 22:15 23.469235 -151.671269 243 37988ft 419kts
09-Aug-13 22:16 23.414299 -151.783734 242 37988ft 420kts
09-Aug-13 22:17 23.359370 -151.895682 242 37988ft 419kts
09-Aug-13 22:18 23.304452 -152.007564 242 37988ft 420kts
09-Aug-13 22:19 23.249434 -152.119321 242 37988ft 420kts
09-Aug-13 22:20 23.194050 -152.231395 242 37988ft 420kts
09-Aug-13 22:21 23.138918 -152.343006 242 37988ft 420kts
09-Aug-13 22:22 23.083624 -152.454497 242 37988ft 420kts
09-Aug-13 22:23 23.028256 -152.565936 242 37988ft 420kts
09-Aug-13 22:24 22.972301 -152.677417 242 37988ft 420kts
09-Aug-13 22:25 22.916411 -152.788517 242 37988ft 420kts
09-Aug-13 22:26 22.860574 -152.899457 242 37988ft 420kts
09-Aug-13 22:27 22.795213 -153.028850 242 37990ft 420kts
09-Aug-13 22:28 22.748323 -153.121550 242 37988ft 420kts
09-Aug-13 22:29 22.692249 -153.232271 242 37987ft 420kts
09-Aug-13 22:30 22.636023 -153.342919 242 37988ft 420kts
09-Aug-13 22:31 22.579734 -153.453411 242 37988ft 420kts
09-Aug-13 22:32 22.523207 -153.564240 242 37995ft 420kts
09-Aug-13 22:33 22.466767 -153.674593 242 37998ft 420kts
09-Aug-13 22:34 22.410267 -153.784857 242 37998ft 420kts
09-Aug-13 22:35 22.364628 -153.899805 258 38007ft 418kts
09-Aug-13 22:36 22.364985 -154.025367 273 38005ft 421kts
09-Aug-13 22:37 22.371030 -154.151751 268 38000ft 420kts
09-Aug-13 22:38 22.372418 -154.277850 269 37999ft 420kts
09-Aug-13 22:39 22.374923 -154.403917 269 38000ft 420kts
09-Aug-13 22:40 22.377260 -154.529962 269 37999ft 420kts
09-Aug-13 22:41 22.379465 -154.656494 269 37998ft 420kts
09-Aug-13 22:42 22.381556 -154.782565 269 37998ft 420kts
09-Aug-13 22:43 22.383572 -154.908618 269 37997ft 420kts
09-Aug-13 22:44 22.385409 -155.034665 269 37998ft 420kts
09-Aug-13 22:45 22.386954 -155.162076 270 38071ft 429kts
09-Aug-13 22:46 22.388143 -155.292067 270 38079ft 435kts
09-Aug-13 22:47 22.389819 -155.423041 270 38078ft 437kts
09-Aug-13 22:48 22.391354 -155.554385 270 38062ft 438kts
09-Aug-13 22:49 22.392861 -155.685623 270 38088ft 437kts
09-Aug-13 22:50 22.395039 -155.817000 268 38049ft 433kts
09-Aug-13 22:51 22.398175 -155.946235 267 38047ft 429kts
09-Aug-13 22:52 22.397875 -156.075006 268 38088ft 431kts
09-Aug-13 22:53 22.396259 -156.204890 264 38059ft 431kts
09-Aug-13 22:54 22.343104 -156.321391 231 36272ft 455kts
09-Aug-13 22:55 22.253443 -156.421784 232 34125ft 467kts
09-Aug-13 22:56 22.170398 -156.532404 234 32044ft 484kts
09-Aug-13 22:57 22.085597 -156.646507 231 29951ft 489kts
09-Aug-13 22:58 22.000103 -156.759923 229 27848ft 483kts
09-Aug-13 22:59 21.915354 -156.869604 228 25750ft 470kts
09-Aug-13 23:00 21.833541 -156.974941 229 23655ft 446kts
09-Aug-13 23:01 21.755800 -157.075088 229 21553ft 427kts
09-Aug-13 23:02 21.681940 -157.170049 229 19304ft 401kts
09-Aug-13 23:03 21.612035 -157.259720 229 16796ft 383kts
09-Aug-13 23:04 21.544519 -157.346434 229 14833ft 381kts
09-Aug-13 23:05 21.479188 -157.430018 229 13032ft 361kts
09-Aug-13 23:06 21.421473 -157.503844 229 11711ft 308kts
09-Aug-13 23:07 21.367821 -157.572301 229 10504ft 295kts
09-Aug-13 23:08 21.314451 -157.640267 229 9217ft 298kts
09-Aug-13 23:09 21.261436 -157.707213 228 7818ft 292kts
09-Aug-13 23:10 21.209102 -157.772317 228 6513ft 284kts
09-Aug-13 23:11 21.158142 -157.835791 228 5314ft 282kts
09-Aug-13 23:12 21.107404 -157.898950 228 4311ft 276kts
09-Aug-13 23:13 21.086940 -157.972464 278 3319ft 266kts
09-Aug-13 23:14 21.104295 -158.045053 296 2999ft 231kts
09-Aug-13 23:15 21.139721 -158.097055 315 3012ft 213kts
09-Aug-13 23:16 21.189022 -158.106108 41 3013ft 205kts
09-Aug-13 23:17 21.222274 -158.056368 51 2188ft 207kts
09-Aug-13 23:18 21.251304 -158.015786 53 1484ft 138kts
09-Aug-13 23:19 21.273509 -157.984375 53 1327ft 137kts
09-Aug-13 23:20 21.295698 -157.953008 52 665ft 129kts
09-Aug-13 23:21 21.317339 -157.922309 53 23ft 115kts
09-Aug-13 23:22 21.327620 -157.913195 313 22ft 18kts

Navigation Log

Ident Type
1. KLAX Airport
2. DINTY Fix
3. DUETS Fix
4. DADIE Fix
5. DIALO Fix
6. DUSAC Fix
7. DRAYK Fix
8. DENNS Fix
9. SOLCE Fix
10. MAGGI Fix
11. BAMBO Fix
12. GRITL Fix
13. CKH Navaid
14. PHNL Airport